createdAt,value
2023-05-16T00:02:21.064Z,37.69
2023-05-16T00:06:39.152Z,42.00
2023-05-16T00:10:57.193Z,39.89
2023-05-16T00:15:15.427Z,39.21
2023-05-16T00:19:33.526Z,40.80
2023-05-16T00:23:51.693Z,36.47
2023-05-16T00:27:14.213Z,39.64
2023-05-16T00:30:19.163Z,40.79
2023-05-16T00:33:23.492Z,41.68
2023-05-16T00:36:29.856Z,38.67
2023-05-16T00:39:33.891Z,38.58
2023-05-16T00:42:37.958Z,37.44
2023-05-16T00:45:41.927Z,39.34
2023-05-16T00:48:46.035Z,41.63
2023-05-16T00:51:50.824Z,38.26
2023-05-16T00:54:55.350Z,40.61
2023-05-16T00:58:00.725Z,39.50
2023-05-16T01:01:05.902Z,43.16
2023-05-16T01:04:10.244Z,44.36
2023-05-16T01:07:14.501Z,43.85
2023-05-16T01:10:18.760Z,43.21
2023-05-16T01:13:33.154Z,43.82
2023-05-16T01:17:11.095Z,44.05
2023-05-16T01:20:27.580Z,43.26
2023-05-16T01:24:01.507Z,45.08
2023-05-16T01:27:07.151Z,47.40
2023-05-16T01:30:19.926Z,48.30
2023-05-16T01:33:24.117Z,48.23
2023-05-16T01:36:34.581Z,49.63
2023-05-16T01:39:55.592Z,51.13
2023-05-16T01:43:05.892Z,51.80
2023-05-16T01:46:17.514Z,51.86
2023-05-16T01:49:47.778Z,53.90
2023-05-16T01:53:00.850Z,53.49
2023-05-16T01:56:06.624Z,53.89
2023-05-16T01:59:13.356Z,54.04
2023-05-16T02:02:20.327Z,54.55
2023-05-16T02:05:24.819Z,55.92
2023-05-16T02:08:30.238Z,56.23
2023-05-16T02:11:33.918Z,57.03
2023-05-16T02:14:38.013Z,57.13
2023-05-16T02:17:42.817Z,58.24
2023-05-16T02:20:46.802Z,57.76
2023-05-16T02:23:52.966Z,57.65
2023-05-16T02:26:56.945Z,58.29
2023-05-16T02:30:00.978Z,58.25
2023-05-16T02:33:09.009Z,57.84
2023-05-16T02:36:13.038Z,57.20
2023-05-16T02:39:19.697Z,57.44
2023-05-16T02:42:23.423Z,58.86
2023-05-16T02:45:27.993Z,58.51
2023-05-16T02:48:32.732Z,58.26
2023-05-16T02:51:37.372Z,59.48
2023-05-16T02:54:41.962Z,59.91
2023-05-16T02:57:46.736Z,59.63
2023-05-16T03:00:50.638Z,60.63
2023-05-16T03:03:54.915Z,62.06
2023-05-16T03:07:00.145Z,61.59
2023-05-16T03:10:05.001Z,61.65
2023-05-16T03:13:08.776Z,60.61
2023-05-16T03:16:13.058Z,61.47
2023-05-16T03:19:17.230Z,61.72
2023-05-16T03:22:21.449Z,62.04
2023-05-16T03:25:25.629Z,62.25
2023-05-16T03:28:29.779Z,63.16
2023-05-16T03:31:34.719Z,63.60
2023-05-16T03:34:39.242Z,64.42
2023-05-16T03:37:43.585Z,65.61
2023-05-16T03:40:47.557Z,66.36
2023-05-16T03:43:51.334Z,66.28
2023-05-16T03:46:56.859Z,66.39
2023-05-16T03:50:00.439Z,67.76
2023-05-16T03:53:05.744Z,66.78
2023-05-16T03:56:10.012Z,70.54
2023-05-16T03:59:14.408Z,68.05
2023-05-16T04:02:19.072Z,68.25
2023-05-16T04:05:23.225Z,68.57
2023-05-16T04:08:27.927Z,69.19
2023-05-16T04:11:31.829Z,69.33
2023-05-16T04:14:36.774Z,69.10
2023-05-16T04:17:41.047Z,69.03
2023-05-16T04:20:45.469Z,69.95
2023-05-16T04:23:49.667Z,69.62
2023-05-16T04:26:53.791Z,69.97
2023-05-16T04:29:57.965Z,71.04
2023-05-16T04:33:02.223Z,72.08
2023-05-16T04:36:06.886Z,72.76
2023-05-16T04:39:10.957Z,72.89
2023-05-16T04:42:14.814Z,73.04
2023-05-16T04:45:18.851Z,73.50
2023-05-16T04:48:23.024Z,74.87
2023-05-16T04:51:27.433Z,75.43
2023-05-16T04:54:31.620Z,75.80
2023-05-16T04:57:35.638Z,76.16
2023-05-16T05:00:40.647Z,77.12
2023-05-16T05:04:04.867Z,76.83
2023-05-16T05:07:12.109Z,77.99
2023-05-16T05:10:19.534Z,78.76
2023-05-16T05:13:24.911Z,78.32
2023-05-16T05:16:28.938Z,79.10
2023-05-16T05:19:32.935Z,80.37
2023-05-16T05:22:39.460Z,80.52
2023-05-16T05:25:48.898Z,80.80
2023-05-16T05:29:04.510Z,82.61
2023-05-16T05:32:09.359Z,83.38
2023-05-16T05:35:13.991Z,81.91
2023-05-16T05:38:17.844Z,82.35
2023-05-16T05:41:30.563Z,80.36
2023-05-16T05:44:38.578Z,79.28
2023-05-16T05:47:45.533Z,80.07
2023-05-16T05:50:49.704Z,79.59
2023-05-16T05:53:56.963Z,78.35
2023-05-16T05:57:04.269Z,78.35
2023-05-16T06:00:14.604Z,79.51
2023-05-16T06:03:18.740Z,81.05
2023-05-16T06:06:23.299Z,82.51
2023-05-16T06:09:29.686Z,83.58
2023-05-16T06:12:33.923Z,83.23
2023-05-16T06:15:38.105Z,80.50
2023-05-16T06:18:41.964Z,79.88
2023-05-16T06:21:48.945Z,80.50
2023-05-16T06:24:52.798Z,81.94
2023-05-16T06:27:56.925Z,80.45
2023-05-16T06:31:02.740Z,81.58
2023-05-16T06:34:08.042Z,84.43
2023-05-16T06:37:15.123Z,82.66
2023-05-16T06:40:21.407Z,80.77
2023-05-16T06:43:25.467Z,81.21
2023-05-16T06:46:34.225Z,81.17
2023-05-16T06:49:38.294Z,83.44
2023-05-16T06:52:43.096Z,84.34
2023-05-16T06:55:47.852Z,83.73
2023-05-16T06:58:59.407Z,85.08
2023-05-16T07:02:08.486Z,85.35
2023-05-16T07:05:13.191Z,87.11
2023-05-16T07:08:17.439Z,86.30
2023-05-16T07:11:22.875Z,85.08
2023-05-16T07:14:27.071Z,88.02
2023-05-16T07:17:34.320Z,87.37
2023-05-16T07:20:38.681Z,88.48
2023-05-16T07:23:42.679Z,87.89
2023-05-16T07:26:49.873Z,88.12
2023-05-16T07:29:54.743Z,88.00
2023-05-16T07:32:59.141Z,87.65
2023-05-16T07:36:15.525Z,89.11
2023-05-16T07:39:21.396Z,89.21
2023-05-16T07:42:26.209Z,89.91
2023-05-16T07:45:30.682Z,88.04
2023-05-16T07:48:35.571Z,86.66
2023-05-16T07:51:40.819Z,87.25
2023-05-16T07:54:50.719Z,87.59
2023-05-16T07:57:57.643Z,88.40
2023-05-16T08:01:01.952Z,87.30
2023-05-16T08:04:06.302Z,88.21
2023-05-16T08:07:14.289Z,87.25
2023-05-16T08:10:18.351Z,87.42
2023-05-16T08:13:22.986Z,87.45
2023-05-16T08:16:30.089Z,87.39
2023-05-16T08:19:36.771Z,86.96
2023-05-16T08:22:41.823Z,86.60
2023-05-16T08:25:48.119Z,87.83
2023-05-16T08:28:55.249Z,87.42
2023-05-16T08:32:00.273Z,86.98
2023-05-16T08:35:07.967Z,87.49
2023-05-16T08:38:12.308Z,87.40
2023-05-16T08:41:17.732Z,85.66
2023-05-16T08:44:27.767Z,84.51
2023-05-16T08:47:33.100Z,84.50
2023-05-16T08:50:43.923Z,84.62
2023-05-16T08:54:01.352Z,84.92
2023-05-16T08:57:14.093Z,84.05
2023-05-16T09:00:20.244Z,85.14
2023-05-16T09:03:26.193Z,85.64
2023-05-16T09:06:31.592Z,85.44
2023-05-16T09:09:35.418Z,86.34
2023-05-16T09:12:57.053Z,86.76
2023-05-16T09:16:20.506Z,87.23
2023-05-16T09:19:26.704Z,87.28
2023-05-16T09:22:30.677Z,87.84
2023-05-16T09:25:34.860Z,87.20
2023-05-16T09:28:45.172Z,86.83
2023-05-16T09:31:51.272Z,87.43
2023-05-16T09:34:59.726Z,89.28
2023-05-16T09:38:03.569Z,89.65
2023-05-16T09:41:07.862Z,89.37
2023-05-16T09:44:14.191Z,89.71
2023-05-16T09:47:23.403Z,89.08
2023-05-16T09:50:30.489Z,90.47
2023-05-16T09:53:34.936Z,93.24
2023-05-16T09:56:52.500Z,91.60
2023-05-16T09:59:56.685Z,91.34
2023-05-16T10:03:05.687Z,89.02
2023-05-16T10:06:13.413Z,89.04
2023-05-16T10:09:20.340Z,90.45
2023-05-16T10:12:32.977Z,89.91
2023-05-16T10:15:43.654Z,89.22
2023-05-16T10:18:48.953Z,89.64
2023-05-16T10:21:55.893Z,88.33
2023-05-16T10:25:13.917Z,87.33
2023-05-16T10:28:20.575Z,88.16
2023-05-16T10:31:27.415Z,88.78
2023-05-16T10:34:32.000Z,87.31
2023-05-16T10:37:37.752Z,86.37
2023-05-16T10:40:42.733Z,85.52
2023-05-16T10:44:00.796Z,86.01
2023-05-16T10:47:07.460Z,87.03
2023-05-16T10:50:11.895Z,88.16
2023-05-16T10:53:31.574Z,88.36
2023-05-16T10:56:39.168Z,88.30
2023-05-16T10:59:49.117Z,86.12
2023-05-16T11:02:53.386Z,86.27
2023-05-16T11:06:02.300Z,85.83
2023-05-16T11:09:12.541Z,87.36
2023-05-16T11:12:16.878Z,85.85
2023-05-16T11:15:32.483Z,85.88
2023-05-16T11:18:53.464Z,87.78
2023-05-16T11:22:19.040Z,88.86
2023-05-16T11:25:42.123Z,87.57
2023-05-16T11:28:51.203Z,87.41
2023-05-16T11:31:55.526Z,87.54
2023-05-16T11:34:59.620Z,87.74
2023-05-16T11:38:04.677Z,87.25
2023-05-16T11:41:17.421Z,86.85
2023-05-16T11:44:21.396Z,86.65
2023-05-16T11:47:26.152Z,86.37
2023-05-16T11:50:35.137Z,86.74
2023-05-16T11:53:39.479Z,87.04
2023-05-16T11:56:45.724Z,86.19
2023-05-16T11:59:54.322Z,87.91
2023-05-16T12:03:06.872Z,86.82
2023-05-16T12:06:11.110Z,86.84
2023-05-16T12:09:18.938Z,89.52
2023-05-16T12:12:23.462Z,89.37
2023-05-16T12:15:31.200Z,89.18
2023-05-16T12:18:41.937Z,91.60
2023-05-16T12:21:56.740Z,92.72
2023-05-16T12:25:01.304Z,94.21
2023-05-16T12:28:09.334Z,93.93
2023-05-16T12:31:31.032Z,93.30
2023-05-16T12:34:36.483Z,93.38
2023-05-16T12:37:52.513Z,92.24
2023-05-16T12:41:00.156Z,90.79
2023-05-16T12:44:18.107Z,89.89
2023-05-16T12:47:23.734Z,88.98
2023-05-16T12:50:28.214Z,89.78
2023-05-16T12:53:57.609Z,89.38
2023-05-16T12:57:11.177Z,90.07
2023-05-16T13:00:20.826Z,89.91
2023-05-16T13:03:26.002Z,91.15
2023-05-16T13:06:44.833Z,91.32
2023-05-16T13:09:57.640Z,91.98
2023-05-16T13:13:03.307Z,92.58
2023-05-16T13:16:16.832Z,91.99
2023-05-16T13:19:21.261Z,91.99
2023-05-16T13:22:28.575Z,91.38
2023-05-16T13:25:36.468Z,89.79
2023-05-16T13:28:41.689Z,89.56
2023-05-16T13:31:45.722Z,91.86
2023-05-16T13:34:51.885Z,92.79
2023-05-16T13:38:00.268Z,91.57
2023-05-16T13:41:04.251Z,91.55
2023-05-16T13:44:10.944Z,91.78
2023-05-16T13:47:15.865Z,91.54
2023-05-16T13:50:20.097Z,91.51
2023-05-16T13:53:24.323Z,91.98
2023-05-16T13:56:28.330Z,92.97
2023-05-16T13:59:56.800Z,93.29
2023-05-16T14:02:57.854Z,94.59
2023-05-16T14:06:02.828Z,96.04
2023-05-16T14:09:07.295Z,96.08
2023-05-16T14:12:11.573Z,94.42
2023-05-16T14:15:16.039Z,95.75
2023-05-16T14:18:20.175Z,96.82
2023-05-16T14:21:24.086Z,96.92
2023-05-16T14:24:28.364Z,95.72
2023-05-16T14:27:35.798Z,95.70
2023-05-16T14:30:40.678Z,96.47
2023-05-16T14:33:48.431Z,95.50
2023-05-16T14:36:52.452Z,94.13
2023-05-16T14:39:57.963Z,94.17
2023-05-16T14:43:04.798Z,94.60
2023-05-16T14:46:08.853Z,95.47
2023-05-16T14:49:16.784Z,95.93
2023-05-16T14:52:21.222Z,96.13
2023-05-16T14:55:25.425Z,95.06
2023-05-16T14:58:29.945Z,94.83
2023-05-16T15:01:34.116Z,94.57
2023-05-16T15:07:49.106Z,94.92
2023-05-16T15:10:53.245Z,95.16
2023-05-16T15:13:58.212Z,95.06
2023-05-16T15:17:09.168Z,95.39
2023-05-16T15:20:16.838Z,95.59
2023-05-16T15:23:21.012Z,94.07
2023-05-16T15:26:25.587Z,93.69
2023-05-16T15:29:29.592Z,94.89
2023-05-16T15:32:34.126Z,94.57
2023-05-16T15:35:38.384Z,94.83
2023-05-16T15:38:45.328Z,95.61
2023-05-16T15:42:05.726Z,95.84
2023-05-16T15:45:13.773Z,94.80
2023-05-16T15:48:17.713Z,94.59
2023-05-16T15:51:22.227Z,95.42
2023-05-16T15:54:26.297Z,95.20
2023-05-16T15:57:31.176Z,93.94
2023-05-16T16:00:36.026Z,94.14
2023-05-16T16:03:40.525Z,94.98
2023-05-16T16:06:44.782Z,94.79
2023-05-16T16:09:48.936Z,95.18
2023-05-16T16:13:06.193Z,96.65
2023-05-16T16:16:10.484Z,96.05
2023-05-16T16:19:14.875Z,96.16
2023-05-16T16:22:20.971Z,95.83
2023-05-16T16:25:27.206Z,96.09
2023-05-16T16:28:31.548Z,96.13
2023-05-16T16:31:35.870Z,95.75
2023-05-16T16:34:40.421Z,95.31
2023-05-16T16:37:51.626Z,95.33
2023-05-16T16:41:08.775Z,95.28
2023-05-16T16:44:13.113Z,95.71
2023-05-16T16:47:17.816Z,95.48
2023-05-16T16:50:22.229Z,95.43
2023-05-16T16:53:27.412Z,95.92
2023-05-16T16:56:31.551Z,95.79
2023-05-16T16:59:36.243Z,95.04
2023-05-16T17:02:40.940Z,94.24
2023-05-16T17:05:45.784Z,94.90
2023-05-16T17:08:50.441Z,95.90
2023-05-16T17:11:54.659Z,96.62
2023-05-16T17:14:58.989Z,97.18
2023-05-16T17:18:03.117Z,96.75
2023-05-16T17:21:09.356Z,96.67
2023-05-16T17:24:13.975Z,97.42
2023-05-16T17:27:18.875Z,97.48
2023-05-16T17:30:23.199Z,97.75
2023-05-16T17:33:27.573Z,96.94
2023-05-16T17:36:32.493Z,96.88
2023-05-16T17:39:40.580Z,96.99
2023-05-16T17:42:45.769Z,97.70
2023-05-16T17:45:50.084Z,96.07
2023-05-16T17:48:54.132Z,95.85
2023-05-16T17:51:59.009Z,95.97
2023-05-16T17:55:03.291Z,96.06
2023-05-16T17:58:10.601Z,96.25
2023-05-16T18:01:14.581Z,96.06
2023-05-16T18:04:21.823Z,95.61
2023-05-16T18:07:27.865Z,95.97
2023-05-16T18:10:51.060Z,95.41
2023-05-16T18:13:56.527Z,96.71
2023-05-16T18:17:00.516Z,96.47
2023-05-16T18:20:17.314Z,95.66
2023-05-16T18:23:22.266Z,95.78
2023-05-16T18:26:30.292Z,96.69
2023-05-16T18:29:35.209Z,95.93
2023-05-16T18:32:39.385Z,96.95
2023-05-16T18:35:43.729Z,96.75
2023-05-16T18:38:50.025Z,96.34
2023-05-16T18:41:54.623Z,95.22
2023-05-16T18:44:58.859Z,94.85
2023-05-16T18:48:03.077Z,95.25
2023-05-16T18:51:07.332Z,95.62
2023-05-16T18:54:11.385Z,95.33
2023-05-16T18:57:15.627Z,94.96
2023-05-16T19:00:21.054Z,96.18
2023-05-16T19:03:25.364Z,95.72
2023-05-16T19:06:31.974Z,95.22
2023-05-16T19:09:36.685Z,95.05
2023-05-16T19:12:41.005Z,95.92
2023-05-16T19:15:45.040Z,95.27
2023-05-16T19:18:49.073Z,95.51
2023-05-16T19:21:53.191Z,96.37
2023-05-16T19:24:57.297Z,94.98
2023-05-16T19:28:01.276Z,95.43
2023-05-16T19:31:09.010Z,94.61
2023-05-16T19:34:14.435Z,93.82
2023-05-16T19:37:18.619Z,93.36
2023-05-16T19:40:22.703Z,93.41
2023-05-16T19:43:32.578Z,94.43
2023-05-16T19:46:39.220Z,95.93
2023-05-16T19:49:43.381Z,96.15
2023-05-16T19:52:47.378Z,95.93
2023-05-16T19:55:51.587Z,95.60
2023-05-16T19:58:55.461Z,95.66
2023-05-16T20:02:05.174Z,94.42
2023-05-16T20:05:09.554Z,94.13
2023-05-16T20:08:22.857Z,93.28
2023-05-16T20:11:29.711Z,92.18
2023-05-16T20:14:37.164Z,93.02
2023-05-16T20:17:42.194Z,93.23
2023-05-16T20:20:48.864Z,92.92
2023-05-16T20:23:58.091Z,92.80
2023-05-16T20:27:02.488Z,91.59
2023-05-16T20:30:10.092Z,91.96
2023-05-16T20:33:14.642Z,93.31
2023-05-16T20:36:18.634Z,94.20
2023-05-16T20:39:30.006Z,94.95
2023-05-16T20:42:37.077Z,95.91
2023-05-16T20:45:43.816Z,96.82
2023-05-16T20:48:48.372Z,95.55
2023-05-16T20:51:52.376Z,93.69
2023-05-16T20:54:58.958Z,92.70
2023-05-16T20:58:02.896Z,92.54
2023-05-16T21:01:06.897Z,92.68
2023-05-16T21:04:11.236Z,92.54
2023-05-16T21:10:38.705Z,94.09
2023-05-16T21:13:42.746Z,94.16
2023-05-16T21:16:46.974Z,93.58
2023-05-16T21:19:51.348Z,92.05
2023-05-16T21:22:55.122Z,92.63
2023-05-16T21:25:59.187Z,92.29
2023-05-16T21:29:06.217Z,91.39
2023-05-16T21:32:11.200Z,92.96
2023-05-16T21:35:15.946Z,94.56
2023-05-16T21:38:19.949Z,92.62
2023-05-16T21:41:24.219Z,91.85
2023-05-16T21:44:28.425Z,92.24
2023-05-16T21:47:32.976Z,90.74
2023-05-16T21:50:52.302Z,88.58
2023-05-16T21:54:03.983Z,91.75
2023-05-16T21:57:08.216Z,89.78
2023-05-16T22:00:13.300Z,88.38
2023-05-16T22:03:20.315Z,88.24
2023-05-16T22:06:25.429Z,87.43
2023-05-16T22:09:29.411Z,87.77
2023-05-16T22:12:36.555Z,86.41
2023-05-16T22:15:46.693Z,83.90
2023-05-16T22:18:56.392Z,83.29
2023-05-16T22:22:00.433Z,81.64
2023-05-16T22:25:08.372Z,76.15
2023-05-16T22:28:12.355Z,76.76
2023-05-16T22:31:16.488Z,74.08
2023-05-16T22:34:23.673Z,70.18
2023-05-16T22:37:27.760Z,70.45
2023-05-16T22:40:31.836Z,71.75
2023-05-16T22:43:35.710Z,73.31
2023-05-16T22:46:39.811Z,74.97
2023-05-16T22:49:43.938Z,75.29
2023-05-16T22:52:56.965Z,71.72
2023-05-16T22:56:00.861Z,65.35
2023-05-16T22:59:04.940Z,60.67
2023-05-16T23:02:08.756Z,61.14
2023-05-16T23:05:12.868Z,59.00
2023-05-16T23:08:21.731Z,57.20
2023-05-16T23:11:25.890Z,57.38
2023-05-16T23:14:29.915Z,57.65
2023-05-16T23:17:34.057Z,58.35
2023-05-16T23:20:40.999Z,60.89
2023-05-16T23:23:44.979Z,59.25
2023-05-16T23:26:49.095Z,59.21
2023-05-16T23:29:53.897Z,58.83
2023-05-16T23:32:58.114Z,58.87
2023-05-16T23:36:06.902Z,56.04
2023-05-16T23:39:23.431Z,56.79
2023-05-16T23:42:28.106Z,60.04
2023-05-16T23:45:32.936Z,60.01
2023-05-16T23:48:40.721Z,57.24
2023-05-16T23:54:57.431Z,56.06
2023-05-16T23:58:01.794Z,55.17
